Time;durP1;ratioP1;P1;durP2;ratioP2;P2;SDS_P1;SDS_P2;PMS_P1;PMS_P2;Temp;Humidity;BMP_temperature;BMP_pressure;BME280_temperature;BME280_humidity;BME280_pressure;Samples;Min_cycle;Max_cycle;Signal;HPM_P1;HPM_P2
2022/11/22 00:01:00;;;;;;;50.03;21.42;;;1.90;99.90;;;;;;5026146;28;20114;-50
2022/11/22 00:03:25;;;;;;;47.55;21.77;;;1.80;99.90;;;;;;5027127;28;20076;-51
2022/11/22 00:05:51;;;;;;;48.75;21.70;;;1.90;99.90;;;;;;5027058;28;20411;-50
2022/11/22 00:08:17;;;;;;;52.70;21.27;;;1.90;99.90;;;;;;5027289;28;20046;-50
2022/11/22 00:10:42;;;;;;;56.58;23.35;;;1.90;99.90;;;;;;5026878;28;20061;-51
2022/11/22 00:13:08;;;;;;;62.75;23.27;;;1.90;99.90;;;;;;5026138;28;20103;-51
2022/11/22 00:15:34;;;;;;;53.63;21.75;;;1.90;99.90;;;;;;5027226;28;20391;-48
2022/11/22 00:18:00;;;;;;;55.05;22.45;;;1.80;99.90;;;;;;5027123;28;20748;-52
2022/11/22 00:20:26;;;;;;;50.10;21.75;;;1.80;99.90;;;;;;5027050;28;20052;-52
2022/11/22 00:22:51;;;;;;;53.22;23.20;;;1.90;99.90;;;;;;5026994;28;20100;-51
2022/11/22 00:25:17;;;;;;;58.05;23.30;;;1.80;99.90;;;;;;5026033;28;20057;-48
2022/11/22 00:27:43;;;;;;;56.15;22.30;;;1.80;99.90;;;;;;5027123;28;20144;-52
2022/11/22 00:30:09;;;;;;;52.35;23.55;;;1.80;99.90;;;;;;5025580;28;20454;-53
2022/11/22 00:32:35;;;;;;;54.20;22.30;;;1.90;99.90;;;;;;5026856;28;20368;-51
2022/11/22 00:35:01;;;;;;;57.83;22.75;;;2.00;99.90;;;;;;5026559;28;20045;-51
2022/11/22 00:37:26;;;;;;;56.38;23.25;;;1.90;99.90;;;;;;5025286;28;20104;-49
2022/11/22 00:39:52;;;;;;;51.85;22.80;;;1.90;99.90;;;;;;5026933;28;20041;-52
2022/11/22 00:42:18;;;;;;;58.38;23.10;;;2.00;99.90;;;;;;5026841;28;20041;-50
2022/11/22 00:44:43;;;;;;;56.13;23.40;;;2.00;99.90;;;;;;5028962;28;20099;-51
2022/11/22 00:47:09;;;;;;;67.65;25.08;;;2.00;99.90;;;;;;5030671;28;20125;-50
2022/11/22 00:49:34;;;;;;;66.57;25.02;;;2.00;99.90;;;;;;5030649;28;20077;-51
2022/11/22 00:52:00;;;;;;;60.28;24.02;;;2.00;99.90;;;;;;5029550;28;20045;-50
2022/11/22 00:54:26;;;;;;;58.25;23.25;;;2.00;99.90;;;;;;5030675;28;20049;-52
2022/11/22 00:56:52;;;;;;;68.22;24.42;;;1.90;99.90;;;;;;5030509;28;20052;-53
2022/11/22 00:59:17;;;;;;;57.47;23.30;;;2.00;99.90;;;;;;5030459;28;20133;-51
2022/11/22 01:01:43;;;;;;;68.15;24.90;;;2.00;99.90;;;;;;5030364;28;20041;-51
2022/11/22 01:04:08;;;;;;;68.88;24.85;;;2.00;99.90;;;;;;5028894;28;20133;-52
2022/11/22 01:06:34;;;;;;;59.28;24.35;;;2.00;99.90;;;;;;5030475;28;20076;-52
2022/11/22 01:09:00;;;;;;;67.55;26.52;;;2.10;99.90;;;;;;5029836;28;20085;-53
2022/11/22 01:11:26;;;;;;;67.18;25.63;;;2.10;99.90;;;;;;5030584;28;20053;-51
2022/11/22 01:13:52;;;;;;;59.88;24.17;;;2.10;99.90;;;;;;5030907;28;20124;-51
2022/11/22 01:16:18;;;;;;;71.57;25.60;;;2.10;99.90;;;;;;5029453;28;20131;-51
2022/11/22 01:18:44;;;;;;;59.15;23.17;;;1.40;99.90;;;;;;5029306;28;20041;-51
2022/11/22 01:21:10;;;;;;;66.38;24.73;;;2.20;99.90;;;;;;5028940;28;20045;-50
2022/11/22 01:23:37;;;;;;;63.33;24.63;;;2.40;99.90;;;;;;5030142;28;20384;-51
2022/11/22 01:26:05;;;;;;;61.50;26.20;;;2.10;99.90;;;;;;5028713;28;20052;-52
2022/11/22 01:28:30;;;;;;;60.15;24.17;;;2.20;99.90;;;;;;5030285;28;20041;-50
2022/11/22 01:30:56;;;;;;;82.60;27.27;;;2.20;99.90;;;;;;5030076;28;20041;-48
2022/11/22 01:33:22;;;;;;;75.60;26.52;;;2.20;99.90;;;;;;5030454;28;20047;-53
2022/11/22 01:35:48;;;;;;;66.80;25.88;;;2.20;99.90;;;;;;5030359;28;20124;-52
2022/11/22 01:38:13;;;;;;;61.85;24.42;;;2.20;99.90;;;;;;5030179;28;20479;-48
2022/11/22 01:40:39;;;;;;;62.08;24.95;;;2.20;99.90;;;;;;5030515;28;20399;-51
2022/11/22 01:43:18;;;;;;;61.95;24.73;;;2.20;99.90;;;;;;5028802;28;20045;-51
2022/11/22 01:46:08;;;;;;;64.82;25.40;;;2.30;99.90;;;;;;5030123;28;20434;-52
2022/11/22 01:48:43;;;;;;;65.22;25.38;;;2.20;99.90;;;;;;5029522;28;20056;-51
2022/11/22 01:51:20;;;;;;;65.25;25.00;;;2.20;99.90;;;;;;5030203;28;20116;-51
2022/11/22 01:53:46;;;;;;;70.78;25.33;;;2.30;99.90;;;;;;5030221;28;20046;-52
2022/11/22 01:56:15;;;;;;;62.35;25.10;;;2.30;99.90;;;;;;5029532;28;20071;-52
2022/11/22 01:58:43;;;;;;;65.03;25.40;;;2.30;99.90;;;;;;5029858;28;20041;-52
2022/11/22 02:01:09;;;;;;;65.10;26.10;;;2.30;99.90;;;;;;5029517;28;20734;-53
2022/11/22 02:03:40;;;;;;;61.03;25.13;;;2.30;99.90;;;;;;5030087;28;20150;-51
2022/11/22 02:06:06;;;;;;;64.78;26.40;;;2.40;99.90;;;;;;5028099;28;20060;-53
2022/11/22 02:08:57;;;;;;;57.78;23.88;;;2.30;99.90;;;;;;5028005;28;20060;-51
2022/11/22 02:11:25;;;;;;;63.10;25.10;;;2.40;99.90;;;;;;5028174;28;20049;-52
2022/11/22 02:13:52;;;;;;;74.60;26.58;;;2.30;99.90;;;;;;5028157;28;20045;-50
2022/11/22 02:16:18;;;;;;;66.50;25.05;;;2.40;99.90;;;;;;5028813;28;20087;-49
2022/11/22 02:18:44;;;;;;;69.80;25.75;;;2.40;99.90;;;;;;5029141;28;20399;-48
2022/11/22 02:21:10;;;;;;;67.57;25.85;;;2.40;99.90;;;;;;5028918;28;20046;-48
2022/11/22 02:24:04;;;;;;;62.75;25.80;;;2.40;99.90;;;;;;5029045;28;20038;-51
2022/11/22 02:26:30;;;;;;;68.65;25.50;;;2.40;99.90;;;;;;5028342;28;20844;-48
2022/11/22 02:29:05;;;;;;;66.07;26.15;;;2.50;99.90;;;;;;5028841;28;20052;-49
2022/11/22 02:31:39;;;;;;;65.40;25.13;;;2.50;99.90;;;;;;5028569;28;20041;-49
2022/11/22 02:34:05;;;;;;;75.15;24.40;;;2.50;99.90;;;;;;5028828;28;20095;-48
2022/11/22 02:36:37;;;;;;;65.78;25.42;;;2.50;99.90;;;;;;5028930;28;20052;-48
2022/11/22 02:39:03;;;;;;;67.13;24.97;;;2.50;99.90;;;;;;5029005;28;20144;-48
2022/11/22 02:41:30;;;;;;;69.78;26.70;;;2.50;99.90;;;;;;5027364;28;20103;-48
2022/11/22 02:43:56;;;;;;;65.85;26.70;;;2.50;99.90;;;;;;5028623;28;20049;-49
2022/11/22 02:46:22;;;;;;;63.60;26.55;;;2.50;99.90;;;;;;5028375;28;20384;-48
2022/11/22 02:48:48;;;;;;;73.72;26.60;;;2.50;99.90;;;;;;5028547;28;20037;-48
2022/11/22 02:51:18;;;;;;;73.43;26.25;;;2.50;99.90;;;;;;5028825;28;20103;-51
2022/11/22 02:53:45;;;;;;;68.55;25.38;;;2.60;99.90;;;;;;5028632;28;20047;-50
2022/11/22 02:56:10;;;;;;;69.10;26.05;;;2.60;99.90;;;;;;5028283;28;20057;-51
2022/11/22 02:58:36;;;;;;;60.50;24.85;;;2.60;99.90;;;;;;5027207;28;20041;-49
2022/11/22 03:01:02;;;;;;;69.38;26.77;;;2.60;99.90;;;;;;5027271;28;20111;-49
2022/11/22 03:03:27;;;;;;;71.70;27.42;;;2.60;99.90;;;;;;5028300;28;20725;-47
2022/11/22 03:05:53;;;;;;;94.50;28.65;;;2.60;99.90;;;;;;5028011;28;20037;-50
2022/11/22 03:08:19;;;;;;;75.35;25.77;;;2.60;99.90;;;;;;5027850;28;20049;-48
2022/11/22 03:10:44;;;;;;;94.78;27.30;;;2.60;99.90;;;;;;5028304;28;20107;-49
2022/11/22 03:13:10;;;;;;;67.32;24.42;;;2.60;99.90;;;;;;5028696;28;20057;-50
2022/11/22 03:15:35;;;;;;;84.30;27.27;;;2.60;99.90;;;;;;5028075;28;20407;-47
2022/11/22 03:18:03;;;;;;;91.43;28.42;;;2.60;99.90;;;;;;5027017;28;20383;-49
2022/11/22 03:20:29;;;;;;;84.03;29.23;;;2.60;99.90;;;;;;5027758;28;20111;-48
2022/11/22 03:22:55;;;;;;;68.90;25.83;;;2.60;99.90;;;;;;5028059;28;20044;-51
2022/11/22 03:25:21;;;;;;;72.88;26.98;;;2.70;99.90;;;;;;5027834;28;20050;-49
2022/11/22 03:27:46;;;;;;;82.88;26.67;;;2.60;99.90;;;;;;5028302;28;20087;-49
2022/11/22 03:30:13;;;;;;;73.90;26.27;;;2.70;99.90;;;;;;5028098;28;20081;-47
2022/11/22 03:32:38;;;;;;;75.90;27.30;;;2.70;99.90;;;;;;5026688;28;20053;-49
2022/11/22 03:35:05;;;;;;;74.05;26.90;;;2.60;99.90;;;;;;5028100;28;20037;-47
2022/11/22 03:37:30;;;;;;;71.80;26.48;;;2.70;99.90;;;;;;5027668;28;20076;-47
2022/11/22 03:39:56;;;;;;;87.38;27.75;;;2.80;99.90;;;;;;5027731;28;20077;-49
2022/11/22 03:42:22;;;;;;;92.28;28.58;;;2.70;99.90;;;;;;5027417;28;20095;-47
2022/11/22 03:44:47;;;;;;;96.75;28.77;;;2.70;99.90;;;;;;5027573;28;20041;-47
2022/11/22 03:47:13;;;;;;;82.30;27.45;;;2.70;99.90;;;;;;5028053;28;20049;-46
2022/11/22 03:49:39;;;;;;;73.28;25.95;;;2.70;99.90;;;;;;5027481;28;20057;-49
2022/11/22 03:52:04;;;;;;;69.80;25.58;;;2.80;99.90;;;;;;5026368;28;20045;-48
2022/11/22 03:54:30;;;;;;;81.13;27.90;;;2.80;99.90;;;;;;5026574;28;20652;-46
2022/11/22 03:56:55;;;;;;;72.03;24.92;;;2.80;99.90;;;;;;5026282;28;20050;-48
2022/11/22 03:59:21;;;;;;;76.75;26.25;;;2.80;99.90;;;;;;5026397;28;20049;-47
2022/11/22 04:01:47;;;;;;;70.50;26.25;;;3.30;99.90;;;;;;5025818;28;20055;-52
2022/11/22 04:04:12;;;;;;;87.40;29.20;;;2.90;99.90;;;;;;5026793;28;20041;-51
2022/11/22 04:06:38;;;;;;;76.90;27.15;;;2.70;99.90;;;;;;5026618;28;20048;-52
2022/11/22 04:09:04;;;;;;;75.50;25.67;;;2.80;99.90;;;;;;5026530;28;20068;-52
2022/11/22 04:11:30;;;;;;;90.63;26.80;;;2.70;99.90;;;;;;5025076;28;20049;-51
2022/11/22 04:16:40;;;;;;;78.38;25.75;;;2.90;99.90;;;;;;5027180;28;20064;-51
2022/11/22 04:19:06;;;;;;;66.97;25.33;;;2.90;99.90;;;;;;5030130;28;20052;-50
2022/11/22 04:21:34;;;;;;;100.60;29.40;;;2.90;99.90;;;;;;5030111;28;20219;-53
2022/11/22 04:26:48;;;;;;;81.03;26.15;;;3.00;99.90;;;;;;5031334;28;20068;-51
2022/11/22 04:29:15;;;;;;;77.00;27.50;;;3.00;99.90;;;;;;5030959;28;20464;-52
2022/11/22 04:34:25;;;;;;;78.15;26.48;;;2.90;99.90;;;;;;5029532;28;20052;-51
2022/11/22 04:36:51;;;;;;;93.13;28.20;;;2.90;99.90;;;;;;5031313;28;20042;-49
2022/11/22 04:39:17;;;;;;;78.40;25.90;;;2.90;99.90;;;;;;5031227;28;20072;-50
2022/11/22 04:41:43;;;;;;;80.35;25.83;;;3.00;99.90;;;;;;5030943;28;20048;-50
2022/11/22 04:46:53;;;;;;;66.65;26.38;;;3.00;99.90;;;;;;5031138;28;20143;-52
2022/11/22 04:49:19;;;;;;;65.72;25.75;;;3.10;99.90;;;;;;5031205;28;20079;-49
2022/11/22 04:54:29;;;;;;;73.30;26.83;;;2.90;99.90;;;;;;5030753;28;20103;-50
2022/11/22 04:56:54;;;;;;;79.53;28.58;;;3.10;99.90;;;;;;5030819;28;20779;-50
2022/11/22 04:59:20;;;;;;;79.18;27.50;;;3.10;99.90;;;;;;5031218;28;20037;-51
2022/11/22 05:01:46;;;;;;;75.05;27.27;;;3.00;99.90;;;;;;5028472;28;20455;-47
2022/11/22 05:04:11;;;;;;;103.18;29.08;;;3.00;99.90;;;;;;5026435;28;20119;-53
2022/11/22 05:06:37;;;;;;;81.57;27.80;;;3.10;99.90;;;;;;5028242;28;20045;-51
2022/11/22 05:09:03;;;;;;;157.68;35.20;;;3.10;99.90;;;;;;5029562;28;20128;-53
2022/11/22 05:11:29;;;;;;;74.78;26.75;;;3.20;99.90;;;;;;5029642;28;20108;-53
2022/11/22 05:13:55;;;;;;;67.03;26.20;;;3.00;99.90;;;;;;5028135;28;20081;-49
2022/11/22 05:16:20;;;;;;;64.45;24.83;;;3.20;99.90;;;;;;5029786;28;20042;-64
2022/11/22 05:18:57;;;;;;;70.25;25.27;;;3.10;99.90;;;;;;5030409;28;20049;-63
2022/11/22 05:21:25;;;;;;;89.85;27.38;;;3.20;99.90;;;;;;5029249;28;20099;-59
2022/11/22 05:23:54;;;;;;;67.32;25.65;;;3.90;99.90;;;;;;5028662;28;20057;-60
2022/11/22 05:26:31;;;;;;;70.28;26.92;;;3.20;99.90;;;;;;5028327;28;20156;-58
2022/11/22 05:28:57;;;;;;;84.75;28.42;;;3.30;99.90;;;;;;5029722;28;20045;-53
2022/11/22 05:31:26;;;;;;;72.85;27.27;;;3.30;99.90;;;;;;5029565;28;20065;-54
2022/11/22 05:33:53;;;;;;;61.70;26.05;;;3.30;99.90;;;;;;5029771;28;20049;-55
2022/11/22 05:36:19;;;;;;;86.93;28.88;;;3.30;99.90;;;;;;5030007;28;20103;-54
2022/11/22 05:38:46;;;;;;;63.42;26.40;;;3.30;99.90;;;;;;5029987;28;20045;-55
2022/11/22 05:41:13;;;;;;;69.95;27.13;;;3.30;99.90;;;;;;5030288;28;20049;-55
2022/11/22 05:43:40;;;;;;;72.32;26.08;;;4.10;99.90;;;;;;5030127;28;20047;-55
2022/11/22 05:46:08;;;;;;;74.70;26.63;;;3.40;99.90;;;;;;5030080;28;20045;-55
2022/11/22 05:48:34;;;;;;;62.88;25.85;;;3.40;99.90;;;;;;5029887;28;20037;-55
2022/11/22 05:51:04;;;;;;;62.65;27.30;;;3.40;99.90;;;;;;5029447;28;20037;-54
2022/11/22 05:53:29;;;;;;;81.28;27.45;;;3.40;99.90;;;;;;5030150;28;20049;-55
2022/11/22 05:55:55;;;;;;;79.03;28.80;;;3.40;99.90;;;;;;5029720;28;20079;-54
2022/11/22 05:58:20;;;;;;;62.38;24.90;;;3.40;99.90;;;;;;5028474;28;20122;-55
2022/11/22 06:00:46;;;;;;;67.30;27.23;;;3.50;99.90;;;;;;5029611;28;20048;-55
2022/11/22 06:03:12;;;;;;;58.92;25.30;;;3.30;99.90;;;;;;5029461;28;20040;-55
2022/11/22 06:05:37;;;;;;;67.22;26.08;;;3.50;99.90;;;;;;5028057;28;20076;-55
2022/11/22 06:08:03;;;;;;;72.13;26.67;;;3.50;99.90;;;;;;5029167;28;20049;-55
2022/11/22 06:10:29;;;;;;;63.05;25.50;;;3.50;99.90;;;;;;5028796;28;20069;-54
2022/11/22 06:12:54;;;;;;;57.15;25.40;;;3.50;99.90;;;;;;5029064;28;20056;-55
2022/11/22 06:15:21;;;;;;;79.53;28.27;;;3.60;99.90;;;;;;5028738;28;20052;-54
2022/11/22 06:17:47;;;;;;;62.20;25.95;;;3.50;99.90;;;;;;5029095;28;20759;-55
2022/11/22 06:20:12;;;;;;;64.72;25.88;;;3.50;99.90;;;;;;5029232;28;20044;-55
2022/11/22 06:22:38;;;;;;;99.95;28.63;;;3.50;99.90;;;;;;5029130;28;20116;-55
2022/11/22 06:25:04;;;;;;;72.15;27.77;;;3.50;99.90;;;;;;5029049;28;20452;-55
2022/11/22 06:27:30;;;;;;;65.05;26.88;;;3.40;99.90;;;;;;5029192;28;20045;-54
2022/11/22 06:29:55;;;;;;;72.30;25.73;;;3.60;99.90;;;;;;5028999;28;20458;-55
2022/11/22 06:32:21;;;;;;;60.80;25.20;;;3.50;99.90;;;;;;5028720;28;20037;-55
2022/11/22 06:34:47;;;;;;;65.18;25.65;;;3.80;99.90;;;;;;5028810;28;20777;-54
2022/11/22 06:37:15;;;;;;;71.63;25.15;;;3.50;99.90;;;;;;5028632;28;20048;-55
2022/11/22 06:39:41;;;;;;;63.30;23.75;;;3.50;99.90;;;;;;5028440;28;20510;-55
2022/11/22 06:42:06;;;;;;;74.28;26.85;;;3.70;99.90;;;;;;5027408;28;20037;-55
2022/11/22 06:44:33;;;;;;;68.07;25.70;;;3.50;99.90;;;;;;5027816;28;20053;-55
2022/11/22 06:46:58;;;;;;;59.28;24.77;;;3.50;99.90;;;;;;5029415;28;20056;-54
2022/11/22 06:49:24;;;;;;;69.22;25.33;;;3.60;99.90;;;;;;5029944;28;20045;-55
2022/11/22 06:51:50;;;;;;;65.88;24.98;;;3.60;99.90;;;;;;5029187;28;20060;-55
2022/11/22 06:54:16;;;;;;;65.07;24.48;;;3.60;99.90;;;;;;5029153;28;20413;-55
2022/11/22 06:56:41;;;;;;;71.45;26.15;;;3.80;99.90;;;;;;5029074;28;20088;-55
2022/11/22 06:59:08;;;;;;;74.30;28.70;;;3.60;99.90;;;;;;5029039;28;20118;-55
2022/11/22 07:01:36;;;;;;;108.82;31.05;;;3.60;99.90;;;;;;5029050;28;20120;-55
2022/11/22 07:04:02;;;;;;;92.93;27.52;;;3.50;99.90;;;;;;5028892;28;20037;-55
2022/11/22 07:06:33;;;;;;;72.38;27.20;;;3.60;99.90;;;;;;5028572;28;20094;-55
2022/11/22 07:09:00;;;;;;;68.78;25.45;;;3.80;99.90;;;;;;5028381;28;20411;-55
2022/11/22 07:11:28;;;;;;;67.65;24.63;;;3.60;99.90;;;;;;5028754;28;20056;-55
2022/11/22 07:13:55;;;;;;;65.00;25.38;;;3.80;99.90;;;;;;5028422;28;20049;-55
2022/11/22 07:16:21;;;;;;;62.85;24.08;;;3.80;99.90;;;;;;5028050;28;20375;-55
2022/11/22 07:18:48;;;;;;;65.70;24.17;;;3.90;99.90;;;;;;5028400;28;20462;-54
2022/11/22 07:21:20;;;;;;;50.33;22.98;;;3.90;99.90;;;;;;5028135;28;20049;-55
2022/11/22 07:23:48;;;;;;;73.88;25.77;;;3.90;99.90;;;;;;5027936;28;20807;-55
2022/11/22 07:26:15;;;;;;;56.50;23.20;;;4.00;99.90;;;;;;5027853;28;20041;-55
2022/11/22 07:28:41;;;;;;;65.38;24.77;;;4.00;99.90;;;;;;5027935;28;20676;-54
2022/11/22 07:31:09;;;;;;;44.55;21.15;;;4.00;99.90;;;;;;5027570;28;20048;-55
2022/11/22 07:33:35;;;;;;;78.20;24.83;;;4.20;99.90;;;;;;5026626;28;20123;-55
2022/11/22 07:36:14;;;;;;;48.35;20.67;;;4.30;99.90;;;;;;5027532;28;20395;-55
2022/11/22 07:38:40;;;;;;;83.80;25.23;;;4.10;99.90;;;;;;5028375;28;20042;-55
2022/11/22 07:41:07;;;;;;;48.97;19.17;;;4.20;99.90;;;;;;5027862;28;20059;-55
2022/11/22 07:43:33;;;;;;;47.97;20.17;;;3.80;99.90;;;;;;5028079;28;20185;-55
2022/11/22 07:46:03;;;;;;;40.55;20.85;;;4.20;99.90;;;;;;5027800;28;20503;-55
2022/11/22 07:48:29;;;;;;;72.07;23.95;;;4.20;99.90;;;;;;5028091;28;20060;-55
2022/11/22 07:50:54;;;;;;;49.70;20.77;;;4.30;99.90;;;;;;5027642;28;20038;-55
2022/11/22 07:53:20;;;;;;;43.38;18.92;;;4.30;99.90;;;;;;5027329;28;20403;-55
2022/11/22 07:55:46;;;;;;;49.97;19.27;;;4.20;99.90;;;;;;5027855;28;20087;-55
2022/11/22 07:58:12;;;;;;;49.28;19.15;;;4.40;99.90;;;;;;5027389;28;20049;-55
2022/11/22 08:00:38;;;;;;;56.10;21.08;;;4.40;99.90;;;;;;5027499;28;20041;-55
2022/11/22 08:03:05;;;;;;;62.08;18.25;;;4.50;99.90;;;;;;5027455;28;20149;-55
2022/11/22 08:05:31;;;;;;;53.90;17.50;;;4.50;99.90;;;;;;5027599;28;20148;-55
2022/11/22 08:07:56;;;;;;;55.25;18.05;;;4.50;99.90;;;;;;5026978;28;20133;-55
2022/11/22 08:10:22;;;;;;;43.30;16.42;;;4.60;99.90;;;;;;5026824;28;20084;-54
2022/11/22 08:12:48;;;;;;;39.60;16.90;;;4.60;99.90;;;;;;5027156;28;20453;-55
2022/11/22 08:15:15;;;;;;;24.13;11.75;;;4.60;99.90;;;;;;5026905;28;20116;-55
2022/11/22 08:17:41;;;;;;;52.75;16.10;;;4.60;99.90;;;;;;5025717;28;20045;-55
2022/11/22 08:20:10;;;;;;;36.03;13.93;;;4.70;99.90;;;;;;5027151;28;20037;-55
2022/11/22 08:22:37;;;;;;;31.25;12.32;;;4.70;99.90;;;;;;5027153;28;20064;-55
2022/11/22 08:25:04;;;;;;;27.23;11.68;;;4.70;99.90;;;;;;5027158;28;20042;-55
2022/11/22 08:27:29;;;;;;;35.63;12.10;;;4.70;99.90;;;;;;5027152;28;20049;-55
2022/11/22 08:29:55;;;;;;;53.60;15.07;;;4.70;99.90;;;;;;5025515;28;20103;-55
2022/11/22 08:32:21;;;;;;;34.92;11.90;;;5.10;99.90;;;;;;5026689;28;20049;-55
2022/11/22 08:34:47;;;;;;;23.80;9.93;;;4.60;99.90;;;;;;5027062;28;20051;-56
2022/11/22 08:37:13;;;;;;;31.52;11.02;;;4.70;99.90;;;;;;5041036;28;20080;-56
2022/11/22 08:39:39;;;;;;;24.60;9.18;;;4.70;99.90;;;;;;5027154;28;20143;-56
2022/11/22 08:42:05;;;;;;;36.40;10.00;;;4.70;99.90;;;;;;5027158;28;20065;-56
2022/11/22 08:44:31;;;;;;;25.98;7.90;;;4.80;99.90;;;;;;5027325;28;20045;-56
2022/11/22 08:46:57;;;;;;;34.30;9.43;;;4.80;99.90;;;;;;5026865;28;20046;-56
2022/11/22 08:49:22;;;;;;;22.23;6.63;;;4.80;99.90;;;;;;5027022;28;20044;-56
2022/11/22 08:51:48;;;;;;;32.25;7.63;;;4.90;99.90;;;;;;5025658;28;20136;-55
2022/11/22 08:54:14;;;;;;;29.35;7.82;;;4.90;99.90;;;;;;5027014;28;20045;-55
2022/11/22 08:56:40;;;;;;;21.13;6.47;;;4.90;99.90;;;;;;5026475;28;20801;-55
2022/11/22 08:59:06;;;;;;;17.40;5.28;;;4.90;99.90;;;;;;5027083;28;20046;-55
2022/11/22 09:01:31;;;;;;;28.50;6.45;;;4.90;99.90;;;;;;5026611;28;20056;-55
2022/11/22 09:03:57;;;;;;;23.10;6.85;;;5.10;99.90;;;;;;5026645;28;20103;-56
2022/11/22 09:06:23;;;;;;;18.88;5.28;;;4.90;99.90;;;;;;5029521;28;20061;-56
2022/11/22 09:08:49;;;;;;;16.42;4.93;;;5.00;99.90;;;;;;5030015;28;20056;-55
2022/11/22 09:11:17;;;;;;;18.13;5.00;;;5.20;99.90;;;;;;5030412;28;20120;-55
2022/11/22 09:13:44;;;;;;;21.92;5.13;;;5.20;99.90;;;;;;5028928;28;20045;-55
2022/11/22 09:16:15;;;;;;;20.10;5.97;;;5.10;99.90;;;;;;5030417;28;20058;-55
2022/11/22 09:18:41;;;;;;;24.25;5.90;;;5.10;99.90;;;;;;5030883;28;20037;-55
2022/11/22 09:21:09;;;;;;;18.55;4.18;;;5.80;99.90;;;;;;5030665;28;20037;-55
2022/11/22 09:23:36;;;;;;;25.15;6.15;;;5.10;99.90;;;;;;5030358;28;20124;-55
2022/11/22 09:26:08;;;;;;;20.52;4.95;;;5.20;99.90;;;;;;5030187;28;20049;-55
2022/11/22 09:28:34;;;;;;;23.85;4.07;;;5.30;99.90;;;;;;5030004;28;20053;-55
2022/11/22 09:31:05;;;;;;;17.75;5.28;;;5.40;99.90;;;;;;5030065;28;20045;-55
2022/11/22 09:33:33;;;;;;;22.03;6.50;;;5.50;99.90;;;;;;5044840;28;20052;-55
2022/11/22 09:35:59;;;;;;;16.52;4.82;;;5.40;99.90;;;;;;5029989;28;20057;-55
2022/11/22 09:38:25;;;;;;;18.08;3.60;;;5.50;99.90;;;;;;5029916;28;20045;-55
2022/11/22 09:40:51;;;;;;;18.23;5.15;;;5.60;99.90;;;;;;5029706;28;20048;-56
2022/11/22 09:43:19;;;;;;;14.75;3.42;;;5.70;99.90;;;;;;5029366;28;20053;-55
2022/11/22 09:46:06;;;;;;;15.80;3.47;;;5.80;99.90;;;;;;5029726;28;20107;-55
2022/11/22 09:48:50;;;;;;;15.75;3.38;;;5.80;99.90;;;;;;5029707;28;20083;-55
2022/11/22 09:51:20;;;;;;;11.23;3.28;;;5.90;99.90;;;;;;5029396;28;20115;-55
2022/11/22 09:54:01;;;;;;;19.08;3.60;;;5.90;99.90;;;;;;5029587;28;20049;-55
2022/11/22 09:56:29;;;;;;;12.10;3.58;;;6.00;99.90;;;;;;5029225;28;20053;-55
2022/11/22 09:58:59;;;;;;;15.10;4.47;;;6.00;99.90;;;;;;5029357;28;20037;-55
2022/11/22 10:01:46;;;;;;;15.77;4.13;;;6.00;99.90;;;;;;5028924;28;20037;-56
2022/11/22 10:04:26;;;;;;;15.63;4.15;;;6.00;99.90;;;;;;5028620;28;20573;-56
2022/11/22 10:07:00;;;;;;;14.68;4.38;;;6.10;99.90;;;;;;5028867;28;20037;-56
2022/11/22 10:10:03;;;;;;;15.32;5.60;;;6.00;99.90;;;;;;5028620;28;20104;-55
2022/11/22 10:12:35;;;;;;;18.73;3.97;;;6.10;99.90;;;;;;5027204;28;20450;-55
2022/11/22 10:15:42;;;;;;;21.65;7.07;;;6.10;99.90;;;;;;5028677;28;20573;-55
2022/11/22 10:18:44;;;;;;;17.42;4.18;;;6.20;99.90;;;;;;5028205;28;20114;-55
2022/11/22 10:21:12;;;;;;;13.93;3.50;;;6.10;99.90;;;;;;5028693;28;20060;-56
2022/11/22 10:23:42;;;;;;;9.25;2.75;;;6.10;99.90;;;;;;5028715;28;20394;-56
2022/11/22 10:26:13;;;;;;;13.32;2.80;;;6.20;99.90;;;;;;5029005;28;20045;-56
2022/11/22 10:29:16;;;;;;;14.27;2.60;;;6.20;99.90;;;;;;5028391;28;20060;-55
2022/11/22 10:31:42;;;;;;;21.42;4.78;;;6.30;99.90;;;;;;5027853;28;20053;-55
2022/11/22 10:34:24;;;;;;;20.15;6.38;;;6.50;99.90;;;;;;5028880;28;20056;-55
2022/11/22 10:36:59;;;;;;;31.25;13.32;;;6.30;99.90;;;;;;5028728;28;20052;-55
2022/11/22 10:39:36;;;;;;;10.35;3.92;;;6.30;99.90;;;;;;5028226;28;20037;-55
2022/11/22 10:42:20;;;;;;;6.63;1.83;;;6.30;99.90;;;;;;5028398;28;20041;-56
2022/11/22 10:45:14;;;;;;;14.30;2.90;;;6.30;99.90;;;;;;5028292;28;20041;-55
2022/11/22 10:47:48;;;;;;;12.63;2.38;;;6.30;99.90;;;;;;5028511;28;20053;-56
2022/11/22 10:50:28;;;;;;;20.75;9.52;;;6.40;99.90;;;;;;5028859;28;20045;-55
2022/11/22 10:53:36;;;;;;;11.73;1.70;;;6.40;99.90;;;;;;5026993;28;20049;-56
2022/11/22 10:56:24;;;;;;;8.13;2.38;;;6.50;99.90;;;;;;5028501;28;20052;-55
2022/11/22 10:59:21;;;;;;;11.20;1.83;;;6.50;99.90;;;;;;5028437;28;20052;-56
2022/11/22 11:02:15;;;;;;;20.60;6.68;;;6.60;99.90;;;;;;5028633;28;20049;-56
2022/11/22 11:04:42;;;;;;;8.05;2.75;;;6.70;99.90;;;;;;5028148;28;20045;-56
2022/11/22 11:07:15;;;;;;;9.50;1.73;;;6.50;99.90;;;;;;5028164;28;20049;-56
2022/11/22 11:09:53;;;;;;;7.22;1.10;;;6.60;99.90;;;;;;5027864;28;20085;-55
2022/11/22 11:12:28;;;;;;;10.77;2.90;;;6.40;99.90;;;;;;5028037;28;20049;-55
2022/11/22 11:15:02;;;;;;;7.55;1.80;;;6.40;99.90;;;;;;5026585;28;20045;-55
2022/11/22 11:17:35;;;;;;;9.13;1.73;;;6.40;99.90;;;;;;5027674;28;20056;-55
2022/11/22 11:20:09;;;;;;;10.60;1.40;;;7.20;99.90;;;;;;5028486;28;20090;-55
2022/11/22 11:22:35;;;;;;;10.82;1.60;;;6.20;99.90;;;;;;5028052;28;20050;-55
2022/11/22 11:25:41;;;;;;;10.60;1.85;;;6.00;99.90;;;;;;5028260;28;20037;-55
2022/11/22 11:28:42;;;;;;;9.88;1.10;;;6.00;99.90;;;;;;5024622;28;20087;-55
2022/11/22 11:31:09;;;;;;;8.80;2.30;;;5.90;99.90;;;;;;5021249;28;20064;-55
2022/11/22 11:33:39;;;;;;;9.60;1.38;;;6.00;99.90;;;;;;5026398;28;20414;-55
2022/11/22 11:36:14;;;;;;;12.30;2.05;;;6.10;99.90;;;;;;5027652;28;20049;-55
2022/11/22 11:38:40;;;;;;;10.63;1.42;;;6.20;99.90;;;;;;5027796;28;20037;-55
2022/11/22 11:41:33;;;;;;;12.20;1.50;;;6.30;99.90;;;;;;5027740;28;20103;-55
2022/11/22 11:44:01;;;;;;;8.70;1.48;;;6.30;99.90;;;;;;5027745;28;20399;-55
2022/11/22 11:46:40;;;;;;;5.70;1.10;;;6.40;99.90;;;;;;5027515;28;20231;-55
2022/11/22 11:49:12;;;;;;;7.72;1.25;;;6.40;99.90;;;;;;5027531;28;20474;-55
2022/11/22 11:51:41;;;;;;;5.97;1.13;;;6.50;99.90;;;;;;5027223;28;20053;-55
2022/11/22 11:54:14;;;;;;;9.43;1.85;;;6.40;99.90;;;;;;5027586;28;20041;-55
2022/11/22 11:56:43;;;;;;;8.48;1.52;;;6.50;99.90;;;;;;5042676;28;20081;-55
2022/11/22 11:59:35;;;;;;;10.65;1.55;;;6.60;99.90;;;;;;5027497;28;20103;-55
2022/11/22 12:02:09;;;;;;;5.65;1.10;;;6.60;99.90;;;;;;5027290;28;20040;-56
2022/11/22 12:04:46;;;;;;;4.20;0.98;;;6.60;99.90;;;;;;5026971;28;20514;-56
2022/11/22 12:07:22;;;;;;;8.27;1.30;;;7.40;99.90;;;;;;5027451;28;20076;-55
2022/11/22 12:09:50;;;;;;;7.60;1.58;;;6.60;99.90;;;;;;5027004;28;20061;-55
2022/11/22 12:12:39;;;;;;;6.75;1.27;;;7.40;99.90;;;;;;5027441;28;20058;-55
2022/11/22 12:15:28;;;;;;;6.35;1.60;;;6.60;99.90;;;;;;5027044;28;20045;-55
2022/11/22 12:18:06;;;;;;;15.40;1.67;;;6.60;99.90;;;;;;5027230;28;20061;-56
2022/11/22 12:20:46;;;;;;;7.55;1.20;;;6.60;99.90;;;;;;5027540;28;20121;-56
2022/11/22 12:23:22;;;;;;;7.25;2.00;;;6.50;99.90;;;;;;5027438;28;20049;-55
2022/11/22 12:25:52;;;;;;;7.97;1.08;;;6.50;99.90;;;;;;5026952;28;20802;-55
2022/11/22 12:28:20;;;;;;;6.65;1.75;;;6.30;99.90;;;;;;5027547;28;20053;-55
2022/11/22 12:30:54;;;;;;;10.48;1.42;;;6.50;99.90;;;;;;5026978;28;20056;-55
2022/11/22 12:33:28;;;;;;;9.55;3.17;;;6.50;99.90;;;;;;5026588;28;20498;-55
2022/11/22 12:35:55;;;;;;;7.03;1.23;;;6.70;99.90;;;;;;5026645;28;20120;-55
2022/11/22 12:38:28;;;;;;;7.53;1.20;;;6.40;99.90;;;;;;5025259;28;20045;-56
2022/11/22 12:40:57;;;;;;;7.32;1.70;;;7.00;99.90;;;;;;5029193;28;20048;-55
2022/11/22 12:43:29;;;;;;;4.88;1.98;;;6.90;99.90;;;;;;5031161;28;20112;-56
2022/11/22 12:46:00;;;;;;;;;;;6.40;99.90;;;;;;5031135;28;20128;-56
2022/11/22 12:48:40;;;;;;;12.20;3.10;;;6.30;99.90;;;;;;5031063;28;19971;-56
2022/11/22 12:51:23;;;;;;;10.93;2.65;;;6.20;99.90;;;;;;5031003;28;20046;-56
2022/11/22 12:53:49;;;;;;;8.98;1.05;;;6.30;99.90;;;;;;5031131;28;20073;-55
2022/11/22 12:56:29;;;;;;;6.85;0.65;;;6.20;99.90;;;;;;5030656;28;20041;-55
2022/11/22 12:59:07;;;;;;;4.35;0.82;;;6.20;99.90;;;;;;5029809;28;20045;-56
2022/11/22 13:01:56;;;;;;;6.85;1.70;;;6.20;99.90;;;;;;5030140;28;20049;-56
2022/11/22 13:04:31;;;;;;;9.65;1.08;;;6.20;99.90;;;;;;5030063;28;20487;-56
2022/11/22 13:07:12;;;;;;;7.03;0.95;;;6.10;99.90;;;;;;5030081;28;20077;-56